Time;durP1;ratioP1;P1;durP2;ratioP2;P2;SDS_P1;SDS_P2;PMS_P1;PMS_P2;Temp;Humidity;BMP_temperature;BMP_pressure;BME280_temperature;BME280_humidity;BME280_pressure;Samples;Min_cycle;Max_cycle;Signal;HPM_P1;HPM_P2
2021/03/08 00:00:32;;;;;;;89.50;22.88;;;-1.20;1.00;;;;;;5133219;27;20294;-67
2021/03/08 00:02:59;;;;;;;83.55;20.60;;;-1.30;1.00;;;;;;5132824;27;20223;-67
2021/03/08 00:05:26;;;;;;;84.05;22.20;;;-1.30;1.00;;;;;;5133222;27;20207;-67
2021/03/08 00:07:53;;;;;;;89.72;22.48;;;-1.40;1.00;;;;;;5132991;27;20313;-67
2021/03/08 00:10:21;;;;;;;82.43;21.52;;;-1.40;1.00;;;;;;5132821;27;20578;-67
2021/03/08 00:12:48;;;;;;;82.65;21.27;;;-1.50;1.00;;;;;;5132458;27;20230;-67
2021/03/08 00:15:16;;;;;;;85.13;21.00;;;-1.50;1.00;;;;;;5132997;27;20203;-67
2021/03/08 00:17:43;;;;;;;78.70;19.35;;;-1.50;1.00;;;;;;5132755;27;20227;-67
2021/03/08 00:20:12;;;;;;;87.43;22.30;;;-1.60;1.00;;;;;;5132784;27;20225;-67
2021/03/08 00:22:40;;;;;;;83.60;21.33;;;-1.60;1.00;;;;;;5132549;27;20298;-67
2021/03/08 00:25:09;;;;;;;84.93;22.00;;;-1.60;1.00;;;;;;5132683;27;20321;-67
2021/03/08 00:27:36;;;;;;;84.70;21.38;;;-1.60;1.00;;;;;;5132396;27;20249;-67
2021/03/08 00:30:03;;;;;;;86.05;23.30;;;-1.70;1.00;;;;;;5132678;27;20256;-67
2021/03/08 00:32:30;;;;;;;80.95;21.10;;;-1.70;1.00;;;;;;5132470;27;20199;-67
2021/03/08 00:34:56;;;;;;;90.78;22.40;;;-1.80;1.00;;;;;;5132538;27;20631;-67
2021/03/08 00:37:26;;;;;;;88.90;23.25;;;-1.80;1.00;;;;;;5132560;27;20231;-67
2021/03/08 00:39:52;;;;;;;87.50;23.00;;;-1.80;1.00;;;;;;5132296;27;20297;-67
2021/03/08 00:42:19;;;;;;;82.43;22.10;;;-1.80;1.00;;;;;;5132552;27;20287;-67
2021/03/08 00:44:46;;;;;;;86.55;22.15;;;-1.90;1.00;;;;;;5133119;27;20246;-67
2021/03/08 00:47:12;;;;;;;85.35;22.50;;;-1.90;1.00;;;;;;5132679;27;20230;-68
2021/03/08 00:49:39;;;;;;;91.95;25.92;;;-1.90;1.00;;;;;;5132341;27;20290;-66
2021/03/08 00:52:06;;;;;;;86.22;23.88;;;-1.90;1.00;;;;;;5132742;27;20234;-67
2021/03/08 00:54:32;;;;;;;89.28;25.45;;;-1.90;1.00;;;;;;5135586;27;20209;-67
2021/03/08 00:56:59;;;;;;;85.15;23.50;;;-2.00;1.00;;;;;;5136554;27;20592;-67
2021/03/08 00:59:25;;;;;;;89.43;27.15;;;-2.00;1.00;;;;;;5136665;27;20202;-66
2021/03/08 01:01:52;;;;;;;87.78;22.92;;;-2.00;1.00;;;;;;5136728;27;20205;-67
2021/03/08 01:04:19;;;;;;;87.78;24.10;;;-2.00;1.00;;;;;;5132398;27;20295;-66
2021/03/08 01:06:45;;;;;;;87.55;25.23;;;-2.00;1.00;;;;;;5136070;27;20251;-67
2021/03/08 01:09:12;;;;;;;90.07;25.15;;;-2.10;1.00;;;;;;5136009;27;20203;-66
2021/03/08 01:11:38;;;;;;;91.75;25.20;;;-2.10;1.00;;;;;;5136019;27;20203;-66
2021/03/08 01:14:04;;;;;;;89.93;25.90;;;-2.20;1.00;;;;;;5136148;27;20249;-67
2021/03/08 01:16:30;;;;;;;90.65;25.13;;;-2.20;1.00;;;;;;5136026;27;20226;-67
2021/03/08 01:18:58;;;;;;;84.03;22.73;;;-2.20;1.00;;;;;;5136273;27;20228;-66
2021/03/08 01:21:24;;;;;;;89.32;23.77;;;-2.30;1.00;;;;;;5135961;27;20210;-67
2021/03/08 01:23:50;;;;;;;93.75;25.13;;;-2.30;1.00;;;;;;5135759;27;20710;-67
2021/03/08 01:26:17;;;;;;;91.45;24.38;;;-2.30;1.00;;;;;;5136241;27;20254;-67
2021/03/08 01:28:43;;;;;;;91.47;25.38;;;-2.30;1.00;;;;;;5135854;27;20203;-67
2021/03/08 01:31:09;;;;;;;87.82;25.20;;;-2.30;1.00;;;;;;5136182;27;20663;-67
2021/03/08 01:33:36;;;;;;;96.95;25.80;;;-2.30;1.00;;;;;;5135677;27;20230;-67
2021/03/08 01:36:04;;;;;;;94.00;25.80;;;-2.40;1.00;;;;;;5135605;27;20253;-67
2021/03/08 01:38:30;;;;;;;89.65;25.27;;;-2.40;1.00;;;;;;5136024;27;20662;-68
2021/03/08 01:40:56;;;;;;;83.55;22.75;;;-2.40;1.00;;;;;;5130381;27;20675;-67
2021/03/08 01:43:24;;;;;;;88.05;23.65;;;-2.40;1.00;;;;;;5135322;27;20248;-67
2021/03/08 01:45:50;;;;;;;89.63;24.50;;;-2.50;1.00;;;;;;5135482;27;20203;-67
2021/03/08 01:48:17;;;;;;;92.45;25.30;;;-2.50;1.00;;;;;;5135373;27;20202;-67
2021/03/08 01:50:45;;;;;;;93.05;25.05;;;-2.50;1.00;;;;;;5135234;27;20195;-67
2021/03/08 01:53:14;;;;;;;87.95;22.38;;;-2.50;1.00;;;;;;5135510;27;20210;-67
2021/03/08 01:55:40;;;;;;;86.95;22.88;;;-2.60;1.00;;;;;;5135572;27;20293;-67
2021/03/08 01:58:07;;;;;;;90.22;23.60;;;-2.60;1.00;;;;;;5135591;27;20647;-67
2021/03/08 02:00:35;;;;;;;87.65;22.98;;;-2.60;1.00;;;;;;5135434;27;20199;-67
2021/03/08 02:03:01;;;;;;;93.18;25.20;;;-2.60;1.00;;;;;;5135032;27;20677;-67
2021/03/08 02:05:29;;;;;;;89.32;23.58;;;-2.70;1.00;;;;;;5134391;27;20203;-67
2021/03/08 02:07:56;;;;;;;86.65;22.92;;;-2.70;1.00;;;;;;5135532;27;20349;-67
2021/03/08 02:10:25;;;;;;;86.57;23.63;;;-2.70;1.00;;;;;;5135111;27;20210;-67
2021/03/08 02:13:19;;;;;;;86.43;24.38;;;-2.80;1.00;;;;;;5135013;27;20199;-67
2021/03/08 02:15:54;;;;;;;89.10;25.63;;;-2.80;1.00;;;;;;5134917;27;20199;-67
2021/03/08 02:18:31;;;;;;;86.65;23.02;;;-2.80;1.00;;;;;;5135146;27;20198;-67
2021/03/08 02:21:19;;;;;;;89.25;24.00;;;-2.90;1.00;;;;;;5134912;27;20730;-67
2021/03/08 02:24:31;;;;;;;87.57;23.17;;;-2.90;1.00;;;;;;5134837;27;20221;-67
2021/03/08 02:27:03;;;;;;;87.93;24.05;;;-2.90;1.00;;;;;;5134939;27;20231;-67
2021/03/08 02:30:06;;;;;;;90.65;24.50;;;-3.00;1.00;;;;;;5135390;27;20207;-67
2021/03/08 02:32:37;;;;;;;92.75;22.90;;;-3.00;1.00;;;;;;5134566;27;20215;-67
2021/03/08 02:35:08;;;;;;;82.85;20.77;;;-3.00;1.00;;;;;;5134675;27;20271;-67
2021/03/08 02:37:40;;;;;;;89.38;24.27;;;-3.00;1.00;;;;;;5134573;27;20773;-66
2021/03/08 02:40:12;;;;;;;84.50;23.02;;;-3.00;1.00;;;;;;5134604;27;20213;-67
2021/03/08 02:42:41;;;;;;;88.40;24.48;;;-3.00;1.00;;;;;;5134245;27;20230;-67
2021/03/08 02:45:10;;;;;;;88.47;24.10;;;-3.10;1.00;;;;;;5134408;27;20211;-67
2021/03/08 02:47:43;;;;;;;88.93;22.95;;;-3.10;1.00;;;;;;5134720;27;20305;-67
2021/03/08 02:50:12;;;;;;;83.90;21.38;;;-3.10;1.00;;;;;;5130910;27;20204;-67
2021/03/08 02:52:43;;;;;;;89.75;21.85;;;-3.10;1.00;;;;;;5134515;27;20203;-67
2021/03/08 02:55:12;;;;;;;84.90;22.67;;;-3.10;1.00;;;;;;5134336;27;20734;-67
2021/03/08 02:57:41;;;;;;;83.35;21.25;;;-3.10;1.00;;;;;;5134878;27;20335;-67
2021/03/08 03:00:10;;;;;;;88.30;21.13;;;-3.10;1.00;;;;;;5134678;27;20211;-67
2021/03/08 03:02:39;;;;;;;82.93;21.65;;;-3.20;1.00;;;;;;5134332;27;20203;-67
2021/03/08 03:05:08;;;;;;;87.47;23.92;;;-3.20;1.00;;;;;;5129785;27;20722;-67
2021/03/08 03:07:36;;;;;;;86.60;22.13;;;-3.20;1.00;;;;;;5134293;27;20219;-67
2021/03/08 03:10:04;;;;;;;79.20;20.38;;;-3.30;1.00;;;;;;5134048;27;20308;-67
2021/03/08 03:12:32;;;;;;;84.45;22.17;;;-3.30;1.00;;;;;;5134601;27;20242;-67
2021/03/08 03:15:00;;;;;;;84.38;22.55;;;-3.30;1.00;;;;;;5134198;27;20198;-67
2021/03/08 03:17:28;;;;;;;83.13;21.52;;;-3.30;1.00;;;;;;5132909;27;20256;-67
2021/03/08 03:19:58;;;;;;;88.60;23.23;;;-3.30;1.00;;;;;;5134908;27;20293;-67
2021/03/08 03:22:26;;;;;;;85.57;21.98;;;-3.30;1.00;;;;;;5133467;27;20338;-67
2021/03/08 03:24:56;;;;;;;85.85;22.65;;;-3.40;1.00;;;;;;5133973;27;20203;-67
2021/03/08 03:27:24;;;;;;;87.15;21.25;;;-3.40;1.00;;;;;;5133722;27;20229;-67
2021/03/08 03:29:51;;;;;;;84.20;20.58;;;-3.40;1.00;;;;;;5133775;27;20234;-67
2021/03/08 03:32:19;;;;;;;83.03;20.90;;;-3.40;1.00;;;;;;5133479;27;20202;-67
2021/03/08 03:34:47;;;;;;;85.97;22.40;;;-3.40;1.00;;;;;;5133288;27;20199;-68
2021/03/08 03:37:15;;;;;;;85.50;22.55;;;-3.50;1.00;;;;;;5133294;27;20262;-67
2021/03/08 03:39:42;;;;;;;82.60;22.33;;;-3.50;1.00;;;;;;5133872;27;20290;-67
2021/03/08 03:42:09;;;;;;;89.40;22.52;;;-3.50;1.00;;;;;;5127491;27;20255;-67
2021/03/08 03:44:35;;;;;;;86.20;20.52;;;-3.50;1.00;;;;;;5133015;27;20219;-67
2021/03/08 03:47:03;;;;;;;82.97;22.45;;;-3.50;1.00;;;;;;5133313;27;20226;-68
2021/03/08 03:49:29;;;;;;;88.47;21.30;;;-3.50;1.00;;;;;;5132988;27;20224;-67
2021/03/08 03:51:56;;;;;;;83.45;21.33;;;-3.60;1.00;;;;;;5133262;27;20256;-68
2021/03/08 03:54:23;;;;;;;85.53;22.42;;;-3.60;1.00;;;;;;5133400;27;20260;-68
2021/03/08 03:56:53;;;;;;;89.10;22.95;;;-3.60;1.00;;;;;;5133203;27;20593;-67
2021/03/08 03:59:23;;;;;;;84.35;22.20;;;-3.60;1.00;;;;;;5133141;27;20257;-67
2021/03/08 04:01:58;;;;;;;84.15;21.90;;;-3.60;1.00;;;;;;5133081;27;20191;-67
2021/03/08 04:04:33;;;;;;;83.70;21.98;;;-3.60;1.00;;;;;;5133308;27;20814;-68
2021/03/08 04:07:03;;;;;;;80.80;19.92;;;-3.70;1.00;;;;;;5132998;27;20271;-68
2021/03/08 04:09:32;;;;;;;85.45;19.40;;;-3.70;1.00;;;;;;5132957;27;20206;-67
2021/03/08 04:12:00;;;;;;;78.85;18.52;;;-3.70;1.00;;;;;;5132799;27;20295;-68
2021/03/08 04:14:31;;;;;;;80.07;19.10;;;-3.70;1.00;;;;;;5132648;27;20210;-67
2021/03/08 04:16:59;;;;;;;80.65;19.02;;;-3.70;1.00;;;;;;5132850;27;20230;-67
2021/03/08 04:19:29;;;;;;;80.35;19.30;;;-3.80;1.00;;;;;;5132896;27;20202;-67
2021/03/08 04:21:59;;;;;;;84.15;21.55;;;-3.80;1.00;;;;;;5132668;27;20649;-67
2021/03/08 04:24:27;;;;;;;79.60;19.13;;;-3.80;1.00;;;;;;5132526;27;20226;-68
2021/03/08 04:26:55;;;;;;;86.30;21.38;;;-3.80;1.00;;;;;;5132376;27;20225;-68
2021/03/08 04:29:23;;;;;;;80.93;20.10;;;-3.80;1.00;;;;;;5132682;27;20220;-68
2021/03/08 04:31:50;;;;;;;84.75;20.85;;;-3.80;1.00;;;;;;5132522;27;20203;-68
2021/03/08 04:34:17;;;;;;;81.07;20.85;;;-3.80;1.00;;;;;;5132648;27;20199;-68
2021/03/08 04:36:44;;;;;;;83.00;21.20;;;-3.90;1.00;;;;;;5132229;27;20230;-68
2021/03/08 04:39:11;;;;;;;83.15;19.33;;;-3.80;1.00;;;;;;5132531;27;20638;-67
2021/03/08 04:41:39;;;;;;;83.60;18.80;;;-3.90;1.00;;;;;;5132399;27;20297;-68
2021/03/08 04:44:08;;;;;;;87.00;20.02;;;-3.90;1.00;;;;;;5132284;27;20384;-68
2021/03/08 04:46:36;;;;;;;81.85;19.42;;;-3.90;1.00;;;;;;5132373;27;20227;-69
2021/03/08 04:49:05;;;;;;;80.85;20.15;;;-3.90;1.00;;;;;;5132386;27;20651;-68
2021/03/08 04:51:33;;;;;;;87.45;20.50;;;-4.00;1.00;;;;;;5132278;27;20228;-68
2021/03/08 04:54:02;;;;;;;80.63;21.13;;;-3.90;1.00;;;;;;5132149;27;20264;-68
2021/03/08 04:56:31;;;;;;;88.50;21.30;;;-4.00;1.00;;;;;;5132385;27;20292;-68
2021/03/08 04:58:57;;;;;;;90.55;23.45;;;-4.00;1.00;;;;;;5132441;27;20210;-68
2021/03/08 05:01:26;;;;;;;82.50;19.30;;;-4.00;1.00;;;;;;5132458;27;20290;-68
2021/03/08 05:03:55;;;;;;;84.22;21.73;;;-4.00;1.00;;;;;;5132032;27;20225;-68
2021/03/08 05:06:24;;;;;;;78.72;19.33;;;-4.00;1.00;;;;;;5121770;27;20242;-68
2021/03/08 05:08:51;;;;;;;86.57;21.65;;;-4.00;1.00;;;;;;5131809;27;20210;-68
2021/03/08 05:11:18;;;;;;;85.38;20.90;;;-4.00;1.00;;;;;;5132322;27;20742;-68
2021/03/08 05:13:48;;;;;;;83.10;20.20;;;-4.00;1.00;;;;;;5132119;27;20202;-68
2021/03/08 05:16:14;;;;;;;81.50;19.70;;;-4.00;1.00;;;;;;5132114;27;20657;-68
2021/03/08 05:18:42;;;;;;;90.47;20.05;;;-4.00;1.00;;;;;;5130001;27;20207;-68
2021/03/08 05:21:12;;;;;;;87.13;20.83;;;-4.00;1.00;;;;;;5127908;27;20300;-68
2021/03/08 05:23:40;;;;;;;85.07;20.60;;;-4.00;1.00;;;;;;5131979;27;20237;-68
2021/03/08 05:26:06;;;;;;;82.75;20.48;;;-4.10;1.00;;;;;;5132188;27;20665;-68
2021/03/08 05:28:34;;;;;;;81.57;19.05;;;-4.10;1.00;;;;;;5132099;27;20290;-68
2021/03/08 05:31:01;;;;;;;79.78;19.77;;;-4.10;1.00;;;;;;5132225;27;20270;-68
2021/03/08 05:33:30;;;;;;;81.18;18.10;;;-4.10;1.00;;;;;;5131804;27;20221;-68
2021/03/08 05:35:59;;;;;;;83.63;21.25;;;-4.20;1.00;;;;;;5131503;27;20235;-68
2021/03/08 05:38:28;;;;;;;84.32;21.48;;;-4.10;1.00;;;;;;5132060;27;20225;-68
2021/03/08 05:41:03;;;;;;;84.25;19.80;;;-4.20;1.00;;;;;;5131772;27;20216;-68
2021/03/08 05:43:33;;;;;;;86.50;21.10;;;-4.20;1.00;;;;;;5131203;27;20595;-68
2021/03/08 05:46:03;;;;;;;90.03;22.92;;;-4.20;1.00;;;;;;5135240;27;20223;-68
2021/03/08 05:48:59;;;;;;;83.75;20.60;;;-4.20;1.00;;;;;;5135743;27;20209;-68
2021/03/08 05:52:13;;;;;;;82.00;22.70;;;-4.20;1.00;;;;;;5135570;27;20206;-68
2021/03/08 05:55:26;;;;;;;79.25;18.90;;;-4.20;1.00;;;;;;5125203;27;20252;-68
2021/03/08 05:58:29;;;;;;;98.07;21.70;;;-4.10;1.00;;;;;;5107446;27;20235;-68
2021/03/08 06:01:10;;;;;;;84.43;21.05;;;-4.10;1.00;;;;;;5071684;28;20208;-68
2021/03/08 06:04:03;;;;;;;87.65;22.23;;;-4.10;1.00;;;;;;5129605;27;20733;-68
2021/03/08 06:07:11;;;;;;;86.10;21.15;;;-4.20;1.00;;;;;;5135266;27;20310;-68
2021/03/08 06:09:47;;;;;;;89.55;22.27;;;-4.20;1.00;;;;;;5135356;27;20207;-68
2021/03/08 06:12:18;;;;;;;85.80;22.60;;;-4.20;1.00;;;;;;5135147;27;20199;-68
2021/03/08 06:14:46;;;;;;;84.30;20.25;;;-4.20;1.00;;;;;;5135241;27;20206;-68
2021/03/08 06:17:15;;;;;;;84.25;21.00;;;-4.10;1.00;;;;;;5134893;27;20233;-68
2021/03/08 06:19:42;;;;;;;85.43;20.27;;;-4.10;1.00;;;;;;5135001;27;20206;-68
2021/03/08 06:22:09;;;;;;;97.32;26.90;;;-4.00;1.00;;;;;;5134908;27;20211;-68
2021/03/08 06:24:38;;;;;;;80.82;21.83;;;-4.00;1.00;;;;;;5135081;27;20219;-68
2021/03/08 06:27:07;;;;;;;87.13;21.67;;;-3.90;1.00;;;;;;5134563;27;20227;-68
2021/03/08 06:29:35;;;;;;;89.90;23.83;;;-3.90;1.00;;;;;;5127321;27;20207;-68
2021/03/08 06:32:01;;;;;;;86.07;23.13;;;-3.80;1.00;;;;;;5127293;27;20202;-68
2021/03/08 06:34:28;;;;;;;77.85;19.05;;;-3.80;1.00;;;;;;5128591;27;20210;-68
2021/03/08 06:36:54;;;;;;;85.30;21.50;;;-3.70;1.00;;;;;;5133066;27;20234;-68
2021/03/08 06:39:21;;;;;;;85.25;23.70;;;-3.70;1.00;;;;;;5131168;27;20210;-68
2021/03/08 06:41:48;;;;;;;84.55;21.17;;;-3.60;1.00;;;;;;5129042;27;20199;-68
2021/03/08 06:44:15;;;;;;;91.13;23.77;;;-3.60;1.00;;;;;;5129426;27;20674;-68
2021/03/08 06:46:44;;;;;;;81.00;20.38;;;-3.50;1.00;;;;;;5134031;27;20305;-68
2021/03/08 06:49:10;;;;;;;85.97;22.42;;;-3.40;1.00;;;;;;5134553;27;20199;-68
2021/03/08 06:52:01;;;;;;;88.90;22.95;;;-3.30;1.00;;;;;;5133984;27;20203;-68
2021/03/08 06:54:27;;;;;;;81.68;21.40;;;-3.30;1.00;;;;;;5134472;27;20206;-68
2021/03/08 06:56:54;;;;;;;86.07;20.98;;;-3.20;1.00;;;;;;5134197;27;20591;-68
2021/03/08 06:59:21;;;;;;;87.68;21.58;;;-3.10;1.00;;;;;;5134521;27;20689;-68
2021/03/08 07:01:47;;;;;;;82.55;21.17;;;-3.00;1.00;;;;;;5134368;27;20737;-67
2021/03/08 07:04:16;;;;;;;89.13;22.63;;;-3.00;1.00;;;;;;5134041;27;20231;-68
2021/03/08 07:06:43;;;;;;;83.32;23.15;;;-2.90;1.00;;;;;;5134133;27;20748;-67
2021/03/08 07:09:12;;;;;;;84.63;23.42;;;-2.90;1.00;;;;;;5133999;27;20222;-68
2021/03/08 07:11:39;;;;;;;84.75;21.80;;;-2.80;1.00;;;;;;5133934;27;20309;-68
2021/03/08 07:14:17;;;;;;;84.47;22.25;;;-2.70;1.00;;;;;;5134210;27;20281;-68
2021/03/08 07:16:45;;;;;;;90.40;22.70;;;-2.60;1.00;;;;;;5133827;27;20240;-68
2021/03/08 07:19:11;;;;;;;91.50;23.23;;;-2.60;1.00;;;;;;5133874;27;20682;-68
2021/03/08 07:21:39;;;;;;;83.38;22.02;;;-2.50;1.00;;;;;;5134025;27;20719;-67
2021/03/08 07:24:11;;;;;;;93.78;23.60;;;-2.40;1.00;;;;;;5133471;27;20361;-67
2021/03/08 07:26:47;;;;;;;93.40;26.65;;;-2.30;1.00;;;;;;5133836;27;20219;-67
2021/03/08 07:29:14;;;;;;;83.55;23.25;;;-2.20;1.00;;;;;;5133867;27;20247;-67
2021/03/08 07:31:42;;;;;;;92.65;26.55;;;-2.10;1.00;;;;;;5133682;27;20353;-67
2021/03/08 07:34:11;;;;;;;90.97;23.60;;;-2.00;1.00;;;;;;5133492;27;20209;-67
2021/03/08 07:36:38;;;;;;;92.90;25.17;;;-1.90;1.00;;;;;;5133165;27;20231;-67
2021/03/08 07:39:13;;;;;;;85.93;24.20;;;-1.80;1.00;;;;;;5133619;27;20206;-67
2021/03/08 07:41:56;;;;;;;90.07;26.20;;;-1.70;1.00;;;;;;5131987;27;20394;-67
2021/03/08 07:44:25;;;;;;;90.68;27.00;;;-1.60;1.00;;;;;;5133383;27;20229;-66
2021/03/08 07:46:52;;;;;;;89.30;26.10;;;-1.50;1.00;;;;;;5133336;27;20777;-66
2021/03/08 07:49:33;;;;;;;91.70;26.42;;;-1.40;1.00;;;;;;5133700;27;20241;-67
2021/03/08 07:52:01;;;;;;;87.22;24.42;;;-1.30;1.00;;;;;;5133266;27;20202;-67
2021/03/08 07:54:27;;;;;;;88.38;26.40;;;-1.20;1.00;;;;;;5133258;27;20252;-67
2021/03/08 07:56:56;;;;;;;88.00;24.10;;;-1.10;1.00;;;;;;5133164;27;20230;-67
2021/03/08 07:59:24;;;;;;;89.22;24.80;;;-1.00;1.00;;;;;;5133071;27;20684;-67
2021/03/08 08:01:50;;;;;;;84.10;24.20;;;-0.90;1.00;;;;;;5133048;27;20234;-67
2021/03/08 08:04:16;;;;;;;88.00;23.80;;;-0.70;1.00;;;;;;5132326;27;20330;-67
2021/03/08 08:06:44;;;;;;;88.15;25.88;;;-0.60;1.00;;;;;;5133270;27;20645;-67
2021/03/08 08:09:11;;;;;;;91.28;25.27;;;-0.50;1.00;;;;;;5133059;27;20210;-66
2021/03/08 08:11:38;;;;;;;88.82;22.88;;;-0.40;1.00;;;;;;5133219;27;20229;-66
2021/03/08 08:14:05;;;;;;;83.07;24.10;;;-0.30;1.00;;;;;;5132641;27;20234;-67
2021/03/08 08:16:32;;;;;;;86.00;24.38;;;-0.20;1.00;;;;;;5132144;27;20223;-67
2021/03/08 08:19:03;;;;;;;93.05;24.63;;;0.00;1.00;;;;;;5131446;27;20623;-67
2021/03/08 08:21:34;;;;;;;87.30;25.13;;;0.10;1.00;;;;;;5131132;27;20259;-67
2021/03/08 08:24:04;;;;;;;87.18;24.63;;;0.20;1.00;;;;;;5132745;27;20219;-67
2021/03/08 08:26:31;;;;;;;84.38;22.42;;;0.30;1.00;;;;;;5132561;27;20234;-67
2021/03/08 08:28:58;;;;;;;84.90;24.10;;;0.50;1.00;;;;;;5132549;27;20689;-67
2021/03/08 08:31:25;;;;;;;82.30;22.67;;;0.50;1.00;;;;;;5132913;27;20623;-67
2021/03/08 08:33:52;;;;;;;83.22;23.65;;;0.70;1.00;;;;;;5132780;27;20681;-67
2021/03/08 08:36:20;;;;;;;84.50;21.88;;;0.80;1.00;;;;;;5132529;27;20231;-67
2021/03/08 08:39:14;;;;;;;83.43;23.58;;;0.90;1.00;;;;;;5132476;27;20206;-67
2021/03/08 08:41:40;;;;;;;79.55;19.90;;;1.10;1.00;;;;;;5132954;27;20260;-67
2021/03/08 08:44:37;;;;;;;78.75;20.60;;;1.20;1.00;;;;;;5132603;27;20313;-67
2021/03/08 08:47:29;;;;;;;78.95;20.05;;;1.40;1.00;;;;;;5132542;27;20223;-67
2021/03/08 08:49:58;;;;;;;79.88;20.20;;;1.60;1.00;;;;;;5132488;27;20207;-67
2021/03/08 08:52:46;;;;;;;77.45;18.83;;;1.70;1.00;;;;;;5132656;27;20199;-67
2021/03/08 08:55:15;;;;;;;78.63;20.20;;;1.80;1.00;;;;;;5132465;27;20317;-67
2021/03/08 08:58:15;;;;;;;74.68;18.88;;;2.00;1.00;;;;;;5132710;27;20715;-67
2021/03/08 09:00:41;;;;;;;77.75;18.70;;;2.10;1.00;;;;;;5132695;27;20687;-67
2021/03/08 09:03:16;;;;;;;76.68;18.58;;;2.20;1.00;;;;;;5132482;27;20234;-67
2021/03/08 09:05:43;;;;;;;74.55;17.33;;;2.30;1.00;;;;;;5132521;27;20209;-67
2021/03/08 09:08:31;;;;;;;73.88;17.88;;;2.50;1.00;;;;;;5132454;27;20253;-67
2021/03/08 09:11:02;;;;;;;75.40;18.05;;;2.60;1.00;;;;;;5132580;27;20207;-67
2021/03/08 09:13:29;;;;;;;77.07;17.92;;;2.80;1.00;;;;;;5132557;27;20550;-67
2021/03/08 09:15:58;;;;;;;73.60;16.30;;;2.90;1.00;;;;;;5136308;27;20206;-67
2021/03/08 09:18:36;;;;;;;71.38;16.92;;;3.00;1.00;;;;;;5136559;27;20659;-67
2021/03/08 09:21:23;;;;;;;75.65;18.08;;;3.10;1.00;;;;;;5136569;27;20199;-67
2021/03/08 09:23:50;;;;;;;72.40;16.85;;;3.30;1.00;;;;;;5136382;27;20222;-67
2021/03/08 09:26:17;;;;;;;73.28;18.08;;;3.40;1.00;;;;;;5136220;27;20319;-68
2021/03/08 09:28:48;;;;;;;74.72;16.73;;;3.50;1.00;;;;;;5136018;27;20209;-67
2021/03/08 09:31:22;;;;;;;73.82;16.60;;;3.70;1.00;;;;;;5135901;27;20203;-67
2021/03/08 09:33:49;;;;;;;72.85;16.85;;;3.90;1.00;;;;;;5136113;27;20722;-67
2021/03/08 09:36:15;;;;;;;74.97;17.38;;;4.00;1.00;;;;;;5135827;27;20322;-67
2021/03/08 09:38:42;;;;;;;71.85;16.02;;;4.20;1.00;;;;;;5136123;27;20302;-67
2021/03/08 09:41:08;;;;;;;72.55;15.55;;;4.20;1.00;;;;;;5136476;27;20710;-67
2021/03/08 09:43:38;;;;;;;73.18;17.35;;;4.30;1.00;;;;;;5135413;27;20318;-67
2021/03/08 09:46:06;;;;;;;74.28;16.65;;;4.40;1.00;;;;;;5136018;27;20226;-67
2021/03/08 09:48:35;;;;;;;70.28;15.98;;;4.60;1.00;;;;;;5135860;27;20238;-66
2021/03/08 09:51:09;;;;;;;71.55;15.55;;;4.70;1.00;;;;;;5136017;27;20297;-67
2021/03/08 09:53:38;;;;;;;72.70;16.00;;;4.90;1.00;;;;;;5135827;27;20247;-66
2021/03/08 09:56:06;;;;;;;71.85;16.27;;;5.20;1.00;;;;;;5135459;27;20254;-66
2021/03/08 09:58:32;;;;;;;74.45;16.95;;;5.50;1.00;;;;;;5135923;27;20219;-67
2021/03/08 10:00:59;;;;;;;75.05;17.00;;;5.80;1.00;;;;;;5135951;27;20213;-67
2021/03/08 10:03:26;;;;;;;71.70;16.00;;;6.10;1.00;;;;;;5135324;27;20230;-67
2021/03/08 10:05:54;;;;;;;71.57;16.38;;;6.40;1.00;;;;;;5135401;27;20550;-67
2021/03/08 10:08:22;;;;;;;70.72;15.32;;;7.50;1.00;;;;;;5135594;27;20203;-67
2021/03/08 10:10:50;;;;;;;70.53;15.50;;;9.10;1.00;;;;;;5135713;27;20202;-67
2021/03/08 10:13:17;;;;;;;69.83;15.90;;;10.30;1.00;;;;;;5135507;27;20320;-67
2021/03/08 10:15:46;;;;;;;70.00;15.10;;;11.40;1.00;;;;;;5135208;27;20444;-67
2021/03/08 10:18:14;;;;;;;69.40;15.67;;;12.50;1.00;;;;;;5135244;27;20472;-67
2021/03/08 10:20:46;;;;;;;72.07;15.00;;;13.60;1.00;;;;;;5135282;27;20446;-67
2021/03/08 10:23:18;;;;;;;68.83;15.27;;;14.50;1.00;;;;;;5134971;27;20448;-67
2021/03/08 10:25:44;;;;;;;70.60;15.47;;;15.30;1.00;;;;;;5134393;27;20447;-67
2021/03/08 10:28:11;;;;;;;66.00;14.97;;;15.90;1.00;;;;;;5135094;27;20536;-68
2021/03/08 10:30:38;;;;;;;66.87;14.43;;;16.20;1.00;;;;;;5135110;27;20941;-68
2021/03/08 10:33:06;;;;;;;67.30;13.90;;;16.30;1.00;;;;;;5134833;27;20451;-68
2021/03/08 10:35:36;;;;;;;67.30;15.07;;;16.30;1.00;;;;;;5134628;27;20473;-68
2021/03/08 10:38:03;;;;;;;70.13;14.97;;;16.40;1.00;;;;;;5134410;27;20444;-68
2021/03/08 10:40:30;;;;;;;67.00;14.50;;;16.60;1.00;;;;;;5134947;27;20457;-68
2021/03/08 10:42:57;;;;;;;72.30;15.23;;;17.00;1.00;;;;;;5134647;27;20486;-67
2021/03/08 10:45:25;;;;;;;65.80;13.63;;;17.50;1.00;;;;;;5134633;27;20480;-68
2021/03/08 10:48:09;;;;;;;67.33;13.60;;;17.60;1.00;;;;;;5134807;27;20855;-68
2021/03/08 10:50:47;;;;;;;65.70;13.87;;;17.60;1.00;;;;;;5134892;27;20451;-68
2021/03/08 10:53:16;;;;;;;67.03;14.37;;;17.90;1.00;;;;;;5134535;27;20908;-67
2021/03/08 10:55:43;;;;;;;64.50;12.10;;;18.50;1.00;;;;;;5134705;27;20538;-68
2021/03/08 10:58:09;;;;;;;64.73;12.23;;;19.10;1.00;;;;;;5134597;27;20458;-67
2021/03/08 11:00:37;;;;;;;63.20;11.13;;;19.50;1.00;;;;;;5134455;27;20448;-67
2021/03/08 11:03:03;;;;;;;64.90;11.90;;;20.10;1.00;;;;;;5134602;27;20539;-67
2021/03/08 11:05:31;;;;;;;64.23;11.90;;;20.80;1.00;;;;;;5134528;27;21004;-66
2021/03/08 11:07:59;;;;;;;67.77;11.83;;;21.30;1.00;;;;;;5134636;27;20480;-66
2021/03/08 11:10:34;;;;;;;63.60;11.83;;;21.90;1.00;;;;;;5134454;27;20453;-66
2021/03/08 11:13:01;;;;;;;63.43;12.07;;;22.30;1.00;;;;;;5134278;27;20500;-68
2021/03/08 11:15:28;;;;;;;66.13;12.40;;;22.40;1.00;;;;;;5134063;27;20444;-67
2021/03/08 11:17:54;;;;;;;64.77;12.17;;;22.50;1.00;;;;;;5134323;27;20464;-67
2021/03/08 11:20:25;;;;;;;63.70;12.57;;;23.00;1.00;;;;;;5134341;27;20522;-67
2021/03/08 11:22:57;;;;;;;63.07;10.57;;;23.30;1.00;;;;;;5133936;27;20820;-67
2021/03/08 11:25:36;;;;;;;65.00;11.67;;;23.60;1.00;;;;;;5133921;27;20480;-67
2021/03/08 11:28:05;;;;;;;62.77;10.93;;;23.60;1.00;;;;;;5134496;27;20487;-67
2021/03/08 11:30:31;;;;;;;64.50;11.73;;;23.80;1.00;;;;;;5134085;27;20478;-67
2021/03/08 11:32:59;;;;;;;62.47;11.93;;;23.70;1.00;;;;;;5133916;27;20456;-67
2021/03/08 11:35:27;;;;;;;63.07;11.60;;;23.70;1.00;;;;;;5133747;27;20840;-67
2021/03/08 11:37:57;;;;;;;63.27;11.53;;;23.40;1.00;;;;;;5132844;27;20559;-67
2021/03/08 11:40:24;;;;;;;63.23;12.30;;;23.50;1.00;;;;;;5133643;27;20452;-67
2021/03/08 11:42:52;;;;;;;63.37;12.00;;;23.40;1.00;;;;;;5133831;27;20451;-67
2021/03/08 11:45:20;;;;;;;62.07;12.03;;;22.00;1.00;;;;;;5133590;27;20483;-67
2021/03/08 11:47:51;;;;;;;66.17;12.57;;;21.40;1.00;;;;;;5133634;27;20862;-67
2021/03/08 11:50:18;;;;;;;65.40;12.50;;;21.90;1.00;;;;;;5133561;27;20450;-68
2021/03/08 11:52:44;;;;;;;63.70;13.17;;;22.80;1.00;;;;;;5133816;27;20596;-67
2021/03/08 11:55:11;;;;;;;63.97;13.00;;;23.30;1.00;;;;;;5133614;27;20897;-71
2021/03/08 11:57:38;;;;;;;64.77;12.63;;;23.90;1.00;;;;;;5133560;27;20654;-68
2021/03/08 12:00:07;;;;;;;63.60;13.40;;;24.60;1.00;;;;;;5133586;27;20523;-68
2021/03/08 12:02:34;;;;;;;63.60;13.00;;;24.70;1.00;;;;;;5133390;27;20449;-68
2021/03/08 12:05:00;;;;;;;65.17;12.97;;;24.30;1.00;;;;;;5133214;27;20481;-68
2021/03/08 12:07:26;;;;;;;65.07;13.17;;;24.00;1.00;;;;;;5133256;27;20475;-68
2021/03/08 12:09:53;;;;;;;63.13;12.60;;;24.00;1.00;;;;;;5133421;27;20447;-68
2021/03/08 12:12:19;;;;;;;63.77;12.43;;;24.60;1.00;;;;;;5133306;27;20478;-68
2021/03/08 12:14:45;;;;;;;64.17;12.33;;;24.90;1.00;;;;;;5133357;27;20481;-68
2021/03/08 12:17:12;;;;;;;62.47;12.43;;;24.80;1.00;;;;;;5133736;27;20555;-68
2021/03/08 12:19:39;;;;;;;63.17;12.40;;;23.80;1.00;;;;;;5133136;27;20545;-68
2021/03/08 12:22:05;;;;;;;63.50;12.37;;;22.60;1.00;;;;;;5132962;27;20446;-68
2021/03/08 12:24:32;;;;;;;61.80;11.73;;;22.40;1.00;;;;;;5127974;27;20485;-67
2021/03/08 12:26:58;;;;;;;63.27;11.73;;;23.30;1.00;;;;;;5128031;27;20482;-68
2021/03/08 12:29:25;;;;;;;63.67;12.67;;;24.30;1.00;;;;;;5128668;27;20445;-68
2021/03/08 12:31:51;;;;;;;64.50;12.00;;;24.50;1.00;;;;;;5129258;27;20494;-68
2021/03/08 12:34:18;;;;;;;64.47;13.03;;;24.60;1.00;;;;;;5128755;27;20454;-68
2021/03/08 12:36:45;;;;;;;63.73;12.60;;;24.70;1.00;;;;;;5129548;27;20468;-66
2021/03/08 12:39:11;;;;;;;62.70;12.10;;;25.20;1.00;;;;;;5129704;27;20627;-67
2021/03/08 12:41:37;;;;;;;62.57;10.23;;;25.60;1.00;;;;;;5124804;27;20467;-67
2021/03/08 12:44:05;;;;;;;62.50;10.47;;;26.10;1.00;;;;;;5126783;27;20480;-67
2021/03/08 12:46:32;;;;;;;61.27;9.47;;;26.30;1.00;;;;;;5132288;27;20483;-67
2021/03/08 12:48:58;;;;;;;60.83;9.80;;;26.90;1.00;;;;;;5133589;27;20484;-68
2021/03/08 12:51:25;;;;;;;61.90;10.07;;;27.50;1.00;;;;;;5139104;27;21090;-67